Latest Coastal Weather Observations for Point Cook

IDV60701

Issued at 7:52 pm EST Monday 4 May 2026 (issued every 10 minutes, with the page automatically refreshed every 10 minutes)

About coastal observations | Map of coastal stations | Coastal observations for VIC | Marine services | Other Formats
Station Details ID: 087185 Name: POINT COOK RAAF Lat: -37.93 Lon: 144.76 Height: 3.13 m
Data from the previous 72 hours. | See also: Recent months for locations in Victoria
Date/Time
EST
Wind Sea
Height
m
Swell Vis
km
Cloud Weather Temp
°C
Press
MSL
hPa
Rain since
9am
mm
Dir  Spd
kts
Gust
kts
Height
m
Period
s
Dir
04/07:30pm N 11 17 - - - - 10 Mostly clear - 15.1 1010.7 0.0
04/07:00pm N 12 17 - - - - 10 Partly cloudy - 15.5 1010.3 0.0
04/06:30pm N 11 17 - - - - 10 Mostly clear - 15.4 1009.9 0.0
04/06:00pm N 13 19 - - - - 10 Partly cloudy - 15.6 1009.5 0.0
04/05:30pm N 12 16 - - - - 10 Mostly clear - 15.8 1009.2 0.0
04/05:00pm N 14 20 - - - - 10 Mostly clear - 15.8 1008.9 0.0
04/04:30pm N 20 33 - - - - 10 - - 17.1 1008.5 0.0
04/04:07pm N 16 28 - - - - 10 Mostly clear - 18.6 1008.2 0.0
04/04:00pm N 18 25 - - - - 10 Mostly clear - 18.1 1008.3 0.0
04/03:30pm N 16 23 - - - - 10 Mostly clear - 18.1 1008.4 0.0
04/03:04pm N 16 31 - - - - 10 Partly cloudy - 18.2 1008.3 0.0
04/03:00pm N 16 24 - - - - 10 Mostly clear - 18.1 1008.4 0.0
04/02:30pm N 18 29 - - - - 10 Mostly clear - 18.6 1008.0 0.0
04/02:29pm N 18 29 - - - - 10 Mostly clear - 18.8 1008.1 0.0
04/02:00pm N 20 27 - - - - 10 Mostly clear - 18.4 1008.1 0.0
04/01:32pm N 21 31 - - - - 10 Mostly clear - 19.1 1008.0 0.0
04/01:30pm N 22 31 - - - - 10 Mostly clear - 18.8 1007.9 0.0
04/01:00pm N 19 27 - - - - 10 Partly cloudy - 19.7 1008.5 0.0
04/12:49pm N 18 28 - - - - 10 Cloudy - 18.6 1008.7 0.0
04/12:30pm N 20 29 - - - - 10 Partly cloudy - 18.2 1009.1 0.0
04/12:27pm N 19 29 - - - - 10 Partly cloudy - 18.5 1009.2 0.0
04/12:00pm N 21 29 - - - - 10 Mostly clear - 18.4 1009.4 0.0
04/11:30am N 21 28 - - - - 10 Mostly clear - 17.7 1009.9 0.0
04/11:00am N 20 28 - - - - 10 - - 17.3 1009.9 0.0
04/10:30am N 16 24 - - - - 10 Mostly clear - 17.4 1010.2 0.0
04/10:00am N 16 23 - - - - 10 Mostly clear - 16.6 1010.2 0.0
04/09:30am N 14 18 - - - - 10 - - 15.9 1010.6 0.0
04/09:00am N 16 21 - - - - 10 - - 14.9 1010.4 3.2
04/08:30am N 11 17 - - - - 10 - - 14.6 1010.7 3.2
04/08:00am N 12 16 - - - - 10 - - 13.5 1010.7 3.2
04/07:30am NNE 10 14 - - - - 10 - - 12.9 1010.7 3.2
04/07:00am N 9 13 - - - - 10 - - 12.8 1010.4 3.2
04/06:30am N 11 15 - - - - 10 Mostly clear - 12.7 1010.3 3.2
04/06:00am N 11 15 - - - - 10 - - 12.7 1010.3 3.2
04/05:30am N 11 15 - - - - 10 - - 12.7 1010.4 3.2
04/05:00am NNE 8 12 - - - - 10 - - 12.8 1010.6 3.2
04/04:30am NNE 10 14 - - - - 10 - - 12.5 1010.9 3.2
04/04:00am NNE 11 15 - - - - 10 - - 12.9 1010.8 3.2
04/03:30am NNE 11 15 - - - - 10 Mostly clear - 13.1 1011.1 3.2
04/03:00am NNE 9 13 - - - - 10 - - 13.0 1011.4 3.2
04/02:30am N 10 13 - - - - 10 - - 13.0 1011.5 3.2
04/02:00am NNE 9 11 - - - - 10 - - 13.1 1011.5 3.2
04/01:30am NNE 10 13 - - - - 10 - - 13.2 1011.5 3.2
04/01:00am N 11 14 - - - - 10 - - 13.4 1011.6 3.2
04/12:30am N 8 12 - - - - 10 - - 13.4 1011.6 3.2
04/12:00am N 12 15 - - - - 10 - - 13.9 1011.5 3.2
 
Date/Time
EST
Wind Sea
Height
m
Swell Vis
km
Cloud Weather Temp
°C
Press
MSL
hPa
Rain since
9am
mm
Dir  Spd
kts
Gust
kts
Height
m
Period
s
Dir
03/11:30pm NNE 11 14 - - - - 10 - - 14.1 1011.9 3.2
03/11:00pm N 10 13 - - - - 10 - - 14.2 1011.9 3.2
03/10:30pm N 11 13 - - - - 10 - - 14.6 1012.1 3.2
03/10:00pm NNE 9 11 - - - - 10 - - 14.7 1012.4 3.2
03/09:30pm NNE 7 12 - - - - 10 - - 14.7 1012.6 3.2
03/09:00pm NNE 6 8 - - - - 10 Cloudy - 14.8 1012.5 3.2
03/08:30pm NNE 7 10 - - - - 10 - - 15.1 1012.5 3.2
03/08:00pm NE 7 10 - - - - 10 - - 15.1 1012.2 3.2
03/07:30pm N 9 11 - - - - 10 - - 15.7 1012.0 3.2
03/07:00pm NNE 5 6 - - - - 10 - - 14.8 1011.4 3.2
03/06:30pm NNE 7 8 - - - - 10 - - 15.2 1010.9 3.2
03/06:00pm N 6 9 - - - - 10 - - 15.3 1010.7 3.2
03/05:30pm NNW 7 10 - - - - 10 - - 16.2 1010.7 3.2
03/05:00pm NNW 6 9 - - - - 10 - - 17.8 1010.4 3.2
03/04:30pm NW 10 16 - - - - 10 - - 18.6 1010.1 3.2
03/04:00pm WNW 12 18 - - - - 10 Partly cloudy - 18.9 1009.9 3.2
03/03:30pm NNW 8 11 - - - - 10 Cloudy - 19.8 1009.9 3.2
03/03:00pm NNW 8 10 - - - - 10 Cloudy - 19.2 1009.9 3.2
03/02:30pm NNW 6 9 - - - - 10 Mostly clear - 18.9 1009.8 3.2
03/02:00pm NW 8 11 - - - - 10 Partly cloudy - 18.4 1009.9 3.2
03/01:30pm NW 8 12 - - - - 10 Cloudy - 18.2 1010.0 3.2
03/01:00pm NW 9 13 - - - - 10 Partly cloudy - 17.8 1010.2 3.2
03/12:31pm N 19 29 - - - - 10 Mostly clear - 19.4 1009.8 3.2
03/12:30pm N 20 29 - - - - 10 Partly cloudy - 19.4 1009.9 3.2
03/12:12pm N 16 26 - - - - 10 Mostly clear - 19.6 1009.7 3.2
03/12:00pm N 13 21 - - - - 10 Cloudy - 19.3 1010.0 3.2
03/11:30am NNE 14 19 - - - - 10 Mostly clear - 18.5 1009.8 3.2
03/11:00am NNE 14 23 - - - - 10 Mostly clear - 18.3 1010.2 3.2
03/10:30am NNE 16 23 - - - - 10 Partly cloudy - 18.0 1009.7 3.0
03/10:00am NNE 16 23 - - - - 7 Mostly clear - 17.9 1009.5 2.2
03/09:30am N 13 21 - - - - 10 Mostly clear - 18.8 1011.1 0.0
03/09:04am NNE 17 28 - - - - 10 Mostly clear - 20.1 1010.5 0.0
03/09:00am NNE 17 26 - - - - 10 Cloudy - 20.0 1010.8 0.0
03/08:30am NNE 14 21 - - - - 10 Mostly clear - 19.6 1010.3 0.0
03/08:00am NNE 13 21 - - - - 10 Partly cloudy - 18.8 1010.3 0.0
03/07:30am NNE 15 21 - - - - 10 Partly cloudy - 18.6 1011.1 0.0
03/07:00am N 17 27 - - - - 10 Partly cloudy - 18.7 1010.9 0.0
03/06:56am N 16 27 - - - - 10 Partly cloudy - 18.7 1010.9 0.0
03/06:30am NNE 19 28 - - - - 10 Cloudy - 18.9 1010.7 0.0
03/06:06am N 17 28 - - - - 10 Cloudy - 19.0 1011.4 0.0
03/06:00am N 15 21 - - - - 10 Cloudy - 19.1 1011.6 0.0
03/05:30am N 11 16 - - - - 10 Partly cloudy - 18.8 1011.3 0.0
03/05:00am N 15 23 - - - - 10 Cloudy - 18.9 1011.1 0.0
03/04:30am NNE 15 21 - - - - 10 Mostly clear - 19.7 1010.6 0.0
03/04:00am NNE 16 25 - - - - 10 Cloudy - 20.2 1011.0 0.0
03/03:53am NNE 15 25 - - - - 10 Partly cloudy - 20.1 1011.1 0.0
03/03:30am NNE 13 20 - - - - 10 Partly cloudy - 20.2 1011.5 0.0
03/03:00am N 12 17 - - - - 10 Cloudy - 20.2 1012.0 0.0
03/02:30am NNE 11 17 - - - - 10 Mostly clear - 20.4 1011.9 0.0
03/02:00am N 10 14 - - - - 10 Cloudy - 20.1 1012.3 0.0
03/01:30am N 11 14 - - - - 10 Partly cloudy - 20.1 1012.6 0.0
03/01:00am N 8 11 - - - - 10 - - 19.9 1012.7 0.0
03/12:30am N 8 11 - - - - 10 - - 20.0 1013.1 0.0
03/12:00am N 10 16 - - - - 10 Cloudy - 20.6 1013.1 0.0
 
Date/Time
EST
Wind Sea
Height
m
Swell Vis
km
Cloud Weather Temp
°C
Press
MSL
hPa
Rain since
9am
mm
Dir  Spd
kts
Gust
kts
Height
m
Period
s
Dir
02/11:30pm NNW 7 9 - - - - 10 Cloudy - 20.5 1013.4 0.0
02/11:00pm NNW 8 11 - - - - 10 Mostly clear - 20.7 1013.8 0.0
02/10:30pm N 11 17 - - - - 10 Mostly clear - 21.2 1013.9 0.0
02/10:00pm N 5 8 - - - - 10 - - 20.7 1014.0 0.0
02/09:30pm NNE 6 8 - - - - 10 Mostly clear - 20.6 1014.1 0.0
02/09:00pm NNE 1 2 - - - - 10 Cloudy - 20.1 1014.3 0.0
02/08:30pm NNE 3 5 - - - - 10 Mostly clear - 20.7 1014.0 0.0
02/08:00pm N 5 6 - - - - 10 - - 21.3 1014.1 0.0
02/07:30pm N 7 9 - - - - 10 Mostly clear - 22.0 1014.2 0.0
02/07:00pm N 8 11 - - - - 10 Cloudy - 23.0 1014.2 0.0
02/06:30pm N 11 14 - - - - 10 - - 23.3 1014.0 0.0
02/06:00pm NNE 11 17 - - - - 10 Cloudy - 23.7 1013.9 0.0
02/05:30pm NNE 14 22 - - - - 10 - - 23.9 1013.8 0.0
02/05:00pm NNE 14 19 - - - - 10 - - 24.1 1013.7 0.0
02/04:38pm NNE 15 25 - - - - 10 - - 24.1 1013.7 0.0
02/04:30pm NNE 17 25 - - - - 10 - - 24.3 1013.5 0.0
02/04:00pm NNE 17 25 - - - - 10 - - 25.0 1013.4 0.0
02/03:30pm N 16 23 - - - - 10 - - 24.1 1013.8 0.0
02/03:00pm NNE 15 21 - - - - 10 Partly cloudy - 24.3 1013.9 0.0
02/02:30pm NNE 16 22 - - - - 10 - - 24.0 1014.1 0.0
02/02:00pm NNE 17 23 - - - - 10 - - 23.5 1014.5 0.0
02/01:30pm NNE 14 21 - - - - 10 - - 22.9 1015.3 0.0
02/01:00pm NNE 15 20 - - - - 10 - - 23.0 1015.7 0.0
02/12:30pm NNE 12 17 - - - - 10 - - 22.2 1016.4 0.0
02/12:00pm NNE 14 21 - - - - 10 Cloudy - 21.5 1017.0 0.0
02/11:30am NNE 12 20 - - - - 10 - - 21.3 1017.5 0.0
02/11:00am N 10 14 - - - - 10 Partly cloudy - 20.9 1018.1 0.0
02/10:30am N 11 15 - - - - 10 Cloudy - 20.7 1018.3 0.0
02/10:00am NNE 11 15 - - - - 10 Partly cloudy - 20.8 1018.4 0.0
02/09:30am N 11 17 - - - - 10 Cloudy - 20.2 1018.8 0.0
02/09:00am N 12 16 - - - - 10 Cloudy - 19.7 1018.9 0.0
02/08:30am NNE 12 16 - - - - 10 Partly cloudy - 19.5 1018.8 0.0
02/08:00am NNE 10 15 - - - - 10 Cloudy - 19.4 1018.8 0.0
02/07:30am NNE 9 12 - - - - 10 Cloudy - 19.2 1018.6 0.0
02/07:00am NNE 10 15 - - - - 10 Cloudy - 19.2 1018.2 0.0
02/06:30am NNE 12 18 - - - - 10 Partly cloudy - 19.5 1018.1 0.0
02/06:00am NNE 14 20 - - - - 10 Cloudy - 19.6 1017.9 0.0
02/05:30am NNE 9 14 - - - - 10 Partly cloudy - 19.3 1018.2 0.0
02/05:00am NNE 11 16 - - - - 10 Mostly clear - 19.1 1018.2 0.0
02/04:30am NNE 7 11 - - - - 10 Mostly clear - 18.5 1018.4 0.0
02/04:00am NE 4 7 - - - - 10 - - 16.5 1018.5 0.0
02/03:30am NE 9 11 - - - - 10 - - 17.6 1018.6 0.0
02/03:00am NNE 5 5 - - - - 10 Mostly cloudy - 16.1 1018.8 0.0
02/02:30am N 3 4 - - - - 10 - - 15.7 1019.0 0.0
02/02:00am N 7 8 - - - - 10 - - 15.9 1019.4 0.0
02/01:30am N 6 7 - - - - 10 - - 15.5 1019.5 0.0
02/01:00am NNE 6 8 - - - - 10 - - 16.7 1019.8 0.0
02/12:30am NNE 5 6 - - - - 10 - - 17.1 1020.0 0.0
02/12:00am NNE 4 6 - - - - 10 Cloudy - 17.1 1020.3 0.0
 
Date/Time
EST
Wind Sea
Height
m
Swell Vis
km
Cloud Weather Temp
°C
Press
MSL
hPa
Rain since
9am
mm
Dir  Spd
kts
Gust
kts
Height
m
Period
s
Dir
01/11:30pm NNE 6 8 - - - - 10 - - 18.3 1020.7 0.0
01/11:00pm NE 5 6 - - - - 10 - - 18.1 1020.9 0.0
01/10:30pm NNE 4 6 - - - - 10 - - 18.1 1021.2 0.0
01/10:00pm NNE 4 6 - - - - 10 - - 18.8 1021.3 0.0
01/09:30pm NNE 4 5 - - - - 10 - - 18.9 1021.4 0.0
01/09:00pm NNE 6 7 - - - - 10 - - 19.9 1021.3 0.0
01/08:30pm NNE 6 7 - - - - 10 - - 20.3 1021.3 0.0
01/08:00pm NE 6 8 - - - - 10 - - 20.9 1021.2 0.0

Other formats

Comma delimited format used in spreadsheet applications
http://www.bom.gov.au/fwo/IDV60701/IDV60701.95941.axf

JavaScript Object Notation format (JSON) in row-major order
http://www.bom.gov.au/fwo/IDV60701/IDV60701.95941.json

Data quality

Most of these data are generated automatically and are frequently updated. Quality checks on data are not normally performed. It is possible for incorrect values to appear. Refer to information at About Latest Weather Observations and please check the disclaimer before using these data.